createdAt,value
2023-05-06T00:02:57.569Z,5.06
2023-05-06T00:13:00.805Z,5.10
2023-05-06T00:23:03.949Z,5.13
2023-05-06T00:33:07.385Z,5.01
2023-05-06T00:43:10.748Z,4.83
2023-05-06T00:53:14.211Z,4.62
2023-05-06T01:03:17.562Z,4.51
2023-05-06T01:14:01.618Z,4.30
2023-05-06T01:24:04.944Z,4.09
2023-05-06T01:34:24.215Z,3.96
2023-05-06T01:44:29.565Z,3.97
2023-05-06T01:54:32.767Z,3.89
2023-05-06T02:04:38.002Z,3.81
2023-05-06T02:14:41.907Z,3.71
2023-05-06T02:24:45.049Z,3.71
2023-05-06T02:34:49.469Z,3.79
2023-05-06T02:44:52.593Z,3.77
2023-05-06T02:54:55.957Z,3.72
2023-05-06T03:04:59.257Z,3.75
2023-05-06T03:15:02.644Z,3.88
2023-05-06T03:25:06.432Z,4.00
2023-05-06T03:35:11.698Z,4.16
2023-05-06T03:45:17.863Z,4.18
2023-05-06T03:55:21.727Z,4.30
2023-05-06T04:05:26.156Z,4.51
2023-05-06T04:15:32.431Z,4.71
2023-05-06T04:25:38.143Z,5.12
2023-05-06T04:35:53.943Z,5.78
2023-05-06T04:45:57.437Z,6.46
2023-05-06T04:56:03.535Z,7.15
2023-05-06T05:06:07.890Z,7.86
2023-05-06T05:16:12.263Z,8.35
2023-05-06T05:26:16.654Z,8.98
2023-05-06T05:36:22.020Z,9.65
2023-05-06T05:46:26.784Z,10.39
2023-05-06T05:56:31.073Z,11.03
2023-05-06T06:06:35.371Z,11.77
2023-05-06T06:16:38.952Z,12.75
2023-05-06T06:26:42.349Z,14.11
2023-05-06T06:36:45.895Z,15.72
2023-05-06T06:46:49.091Z,17.21
2023-05-06T06:56:56.605Z,18.17
2023-05-06T07:06:59.944Z,18.47
2023-05-06T07:17:03.302Z,19.30
2023-05-06T07:27:07.235Z,20.10
2023-05-06T07:37:10.538Z,21.06
2023-05-06T07:47:27.589Z,21.51
2023-05-06T07:57:31.106Z,21.92
2023-05-06T08:07:34.385Z,22.61
2023-05-06T08:17:37.482Z,22.96
2023-05-06T08:27:40.965Z,23.00
2023-05-06T08:37:44.114Z,22.74
2023-05-06T08:47:47.848Z,22.49
2023-05-06T08:57:53.386Z,22.59
2023-05-06T09:07:56.681Z,22.39
2023-05-06T09:18:00.974Z,21.93
2023-05-06T09:28:10.178Z,21.84
2023-05-06T09:38:13.339Z,22.07
2023-05-06T09:48:16.729Z,22.40
2023-05-06T09:58:22.644Z,22.25
2023-05-06T10:08:27.166Z,22.40
2023-05-06T10:18:31.170Z,22.54
2023-05-06T10:28:41.177Z,22.88
2023-05-06T10:38:49.362Z,22.60
2023-05-06T10:49:04.872Z,22.30
2023-05-06T10:59:09.171Z,21.89
2023-05-06T11:09:23.612Z,21.26
2023-05-06T11:19:31.074Z,20.71
2023-05-06T11:29:34.274Z,20.41
2023-05-06T11:39:40.888Z,19.94
2023-05-06T11:49:44.466Z,19.04
2023-05-06T11:59:54.813Z,18.11
2023-05-06T12:09:59.279Z,17.68
2023-05-06T12:20:02.949Z,17.44
2023-05-06T12:30:09.457Z,17.00
2023-05-06T12:40:17.880Z,16.58
2023-05-06T12:50:39.312Z,16.36
2023-05-06T13:00:42.466Z,16.19
2023-05-06T13:10:45.917Z,15.94
2023-05-06T13:21:02.469Z,15.75
2023-05-06T13:31:18.198Z,15.69
2023-05-06T13:41:25.520Z,15.55
2023-05-06T13:51:30.947Z,15.45
2023-05-06T14:01:34.283Z,15.37
2023-05-06T14:11:37.534Z,15.49
2023-05-06T14:21:40.651Z,16.22
2023-05-06T14:31:43.866Z,16.64
2023-05-06T14:41:47.284Z,16.81
2023-05-06T14:51:50.527Z,16.98
2023-05-06T15:01:53.590Z,17.19
2023-05-06T15:11:57.686Z,17.37
2023-05-06T15:22:01.060Z,17.57
2023-05-06T15:32:19.359Z,17.58
2023-05-06T15:42:24.231Z,17.49
2023-05-06T15:52:27.352Z,17.19
2023-05-06T16:02:31.005Z,17.15
2023-05-06T16:12:34.661Z,17.00
2023-05-06T16:22:40.758Z,16.85
2023-05-06T16:32:44.358Z,16.79
2023-05-06T16:42:51.149Z,16.61
2023-05-06T16:52:54.290Z,16.41
2023-05-06T17:02:58.965Z,16.21
2023-05-06T17:13:03.290Z,15.97
2023-05-06T17:23:08.969Z,15.76
2023-05-06T17:33:12.114Z,15.54
2023-05-06T17:43:15.476Z,15.14
2023-05-06T17:53:18.509Z,14.72
2023-05-06T18:03:22.743Z,14.46
2023-05-06T18:13:27.348Z,14.28
2023-05-06T18:23:30.738Z,14.12
2023-05-06T18:33:36.007Z,13.95
2023-05-06T18:43:39.186Z,13.82
2023-05-06T18:53:43.174Z,13.66
2023-05-06T19:03:47.019Z,13.58
2023-05-06T19:13:52.669Z,13.52
2023-05-06T19:23:59.949Z,13.52
2023-05-06T19:34:04.141Z,13.56
2023-05-06T19:44:07.527Z,13.45
2023-05-06T19:54:10.569Z,13.33
2023-05-06T20:04:13.751Z,13.32
2023-05-06T20:14:16.909Z,13.31
2023-05-06T20:24:20.392Z,13.22
2023-05-06T20:34:24.202Z,13.11
2023-05-06T20:44:27.536Z,13.07
2023-05-06T20:54:30.557Z,13.10
2023-05-06T21:04:33.970Z,13.12
2023-05-06T21:14:38.029Z,13.12
2023-05-06T21:24:41.080Z,13.09
2023-05-06T21:34:46.887Z,13.00
2023-05-06T21:44:50.394Z,12.88
2023-05-06T21:54:53.632Z,12.86
2023-05-06T22:04:56.813Z,12.83
2023-05-06T22:15:00.072Z,12.77
2023-05-06T22:25:04.024Z,12.71
2023-05-06T22:35:08.674Z,12.56
2023-05-06T22:45:12.322Z,12.35
2023-05-06T22:55:16.291Z,12.18
2023-05-06T23:05:19.447Z,12.08
2023-05-06T23:15:23.402Z,11.97
2023-05-06T23:25:27.690Z,11.90
2023-05-06T23:35:30.852Z,11.81
2023-05-06T23:45:34.033Z,11.80
2023-05-06T23:55:37.584Z,11.92
